Sidell, Illinois
Current Conditions -  °F | °C
As of 7:55 PM on Saturday 20 Dec 2014 (Local Time) from KPRG Reporting Station
Scattered Clouds Scattered Clouds  
Wind Chill: 29°   Ceiling: Unl
Heat Index: 29°   Visibility: 7mi
Dew Point: 28°   Wind: 3mph
Humidity: 94%   Direction: 190°S
Pressure: 30.3"   Gusts: NA
Location:  39.91°N, 87.82°W
Report Text: KPRG 210155Z AUTO 19003KT 7SM SCT065 M01/M02 A3030 RMK AO2 T10151023
Loading
Personal Weather Stations






























Interactive Weather Map New forecast layout! Learn more

10-Day Weather Forecast

Advertisements
Track Severe Weather on mobile